createdAt,value
2015-07-27T00:00:15.575Z,94935
2015-07-27T00:00:33.965Z,94940
2015-07-27T00:00:52.452Z,94934
2015-07-27T00:01:10.873Z,94934
2015-07-27T00:01:29.358Z,94937
2015-07-27T00:01:48.048Z,94934
2015-07-27T00:02:06.423Z,94934
2015-07-27T00:02:24.892Z,94950
2015-07-27T00:02:43.284Z,94934
2015-07-27T00:03:01.862Z,94931
2015-07-27T00:03:20.440Z,94939
2015-07-27T00:03:38.940Z,94940
2015-07-27T00:03:57.598Z,94932
2015-07-27T00:04:16.145Z,94931
2015-07-27T00:04:34.551Z,94934
2015-07-27T00:04:52.991Z,94935
2015-07-27T00:05:11.350Z,94934
2015-07-27T00:05:29.835Z,94934
2015-07-27T00:05:48.196Z,94937
2015-07-27T00:06:06.696Z,94934
2015-07-27T00:06:25.399Z,94936
2015-07-27T00:06:43.852Z,94946
2015-07-27T00:07:02.323Z,94938
2015-07-27T00:07:21.073Z,94933
2015-07-27T00:07:39.464Z,94931
2015-07-27T00:07:58.231Z,94917
2015-07-27T00:08:16.841Z,94932
2015-07-27T00:08:35.356Z,94926
2015-07-27T00:08:53.827Z,94933
2015-07-27T00:09:12.218Z,94931
2015-07-27T00:09:30.764Z,94939
2015-07-27T00:09:49.155Z,94936
2015-07-27T00:10:07.609Z,94936
2015-07-27T00:10:26.000Z,94931
2015-07-27T00:10:44.562Z,94931
2015-07-27T00:11:03.175Z,94933
2015-07-27T00:11:21.565Z,94933
2015-07-27T00:11:40.175Z,94928
2015-07-27T00:11:58.645Z,94933
2015-07-27T00:12:17.114Z,94936
2015-07-27T00:12:35.645Z,94946
2015-07-27T00:12:54.036Z,94939
2015-07-27T00:13:12.476Z,94942
2015-07-27T00:13:30.851Z,94939
2015-07-27T00:13:49.288Z,94931
2015-07-27T00:14:07.853Z,94937
2015-07-27T00:14:26.212Z,94936
2015-07-27T00:14:44.681Z,94936
2015-07-27T00:15:03.166Z,94942
2015-07-27T00:15:21.729Z,94935
2015-07-27T00:15:40.369Z,94933
2015-07-27T00:15:58.981Z,94939
2015-07-27T00:16:17.402Z,94936
2015-07-27T00:16:35.840Z,94930
2015-07-27T00:16:54.199Z,94929
2015-07-27T00:17:12.717Z,94929
2015-07-27T00:17:31.139Z,94929
2015-07-27T00:17:49.592Z,94935
2015-07-27T00:18:08.111Z,94935
2015-07-27T00:18:26.548Z,94923
2015-07-27T00:18:45.157Z,94939
2015-07-27T00:19:03.738Z,94925
2015-07-27T00:19:22.175Z,94928
2015-07-27T00:19:40.581Z,94930
2015-07-27T00:19:59.206Z,94933
2015-07-27T00:20:17.676Z,94928
2015-07-27T00:20:36.145Z,94946
2015-07-27T00:20:54.567Z,94939
2015-07-27T00:21:12.976Z,94930
2015-07-27T00:21:31.617Z,94930
2015-07-27T00:21:50.054Z,94933
2015-07-27T00:22:08.587Z,94927
2015-07-27T00:22:27.165Z,94930
2015-07-27T00:22:45.884Z,94921
2015-07-27T00:23:04.259Z,94936
2015-07-27T00:23:22.777Z,94930
2015-07-27T00:23:41.636Z,94928
2015-07-27T00:24:00.324Z,94936
2015-07-27T00:24:18.543Z,94930
2015-07-27T00:24:37.090Z,94921
2015-07-27T00:24:55.747Z,94916
2015-07-27T00:25:14.327Z,94924
2015-07-27T00:25:32.920Z,94927
2015-07-27T00:25:51.561Z,94916
2015-07-27T00:26:10.061Z,94919
2015-07-27T00:26:28.657Z,94925
2015-07-27T00:26:47.094Z,94916
2015-07-27T00:27:05.547Z,94926
2015-07-27T00:27:24.159Z,94924
2015-07-27T00:27:42.581Z,94919
2015-07-27T00:28:00.940Z,94917
2015-07-27T00:28:19.567Z,94923
2015-07-27T00:28:38.036Z,94929
2015-07-27T00:28:56.520Z,94920
2015-07-27T00:29:14.973Z,94918
2015-07-27T00:29:33.444Z,94920
2015-07-27T00:29:52.069Z,94923
2015-07-27T00:30:10.507Z,94919
2015-07-27T00:30:28.978Z,94920
2015-07-27T00:30:47.463Z,94911
2015-07-27T00:31:05.838Z,94925
2015-07-27T00:31:24.339Z,94924
2015-07-27T00:31:42.792Z,94921
2015-07-27T00:32:01.214Z,94920
2015-07-27T00:32:19.870Z,94923
2015-07-27T00:32:38.231Z,94920
2015-07-27T00:32:55.981Z,94925
2015-07-27T00:33:13.731Z,94915
2015-07-27T00:33:31.561Z,94914
2015-07-27T00:33:50.155Z,94920
2015-07-27T00:34:08.593Z,94918
2015-07-27T00:34:27.017Z,94920
2015-07-27T00:34:45.720Z,94909
2015-07-27T00:35:04.095Z,94917
2015-07-27T00:35:22.532Z,94915
2015-07-27T00:35:41.128Z,94921
2015-07-27T00:35:59.472Z,94912
2015-07-27T00:36:17.878Z,94918
2015-07-27T00:36:36.536Z,94915
2015-07-27T00:36:54.942Z,94914
2015-07-27T00:37:13.380Z,94914
2015-07-27T00:37:32.054Z,94914
2015-07-27T00:37:50.413Z,94907
2015-07-27T00:38:08.835Z,94911
2015-07-27T00:38:27.288Z,94908
2015-07-27T00:38:45.900Z,94916
2015-07-27T00:39:04.306Z,94910
2015-07-27T00:39:23.056Z,94908
2015-07-27T00:39:41.573Z,94905
2015-07-27T00:40:00.042Z,94905
2015-07-27T00:40:18.558Z,94906
2015-07-27T00:40:37.200Z,94910
2015-07-27T00:40:55.622Z,94910
2015-07-27T00:41:14.107Z,94915
2015-07-27T00:41:32.575Z,94909
2015-07-27T00:41:51.031Z,94908
2015-07-27T00:42:09.499Z,94909
2015-07-27T00:42:27.890Z,94911
2015-07-27T00:42:46.548Z,94902
2015-07-27T00:43:05.111Z,94904
2015-07-27T00:43:23.704Z,94915
2015-07-27T00:43:42.080Z,94909
2015-07-27T00:44:00.596Z,94915
2015-07-27T00:44:19.315Z,94906
2015-07-27T00:44:37.799Z,94909
2015-07-27T00:44:56.177Z,94914
2015-07-27T00:45:14.740Z,94911
2015-07-27T00:45:33.380Z,94919
2015-07-27T00:45:51.804Z,94905
2015-07-27T00:46:10.304Z,94911
2015-07-27T00:46:28.679Z,94911
2015-07-27T00:46:47.399Z,94916
2015-07-27T00:47:05.774Z,94918
2015-07-27T00:47:24.196Z,94904
2015-07-27T00:47:42.758Z,94913
2015-07-27T00:48:01.121Z,94919
2015-07-27T00:48:19.480Z,94908
2015-07-27T00:48:37.855Z,94910
2015-07-27T00:48:56.450Z,94910
2015-07-27T00:49:14.825Z,94913
2015-07-27T00:49:33.340Z,94909
2015-07-27T00:49:51.703Z,94906
2015-07-27T00:50:10.156Z,94909
2015-07-27T00:50:28.562Z,94921
2015-07-27T00:50:46.937Z,94910
2015-07-27T00:51:05.594Z,94916
2015-07-27T00:51:23.954Z,94914
2015-07-27T00:51:42.391Z,94919
2015-07-27T00:52:00.910Z,94918
2015-07-27T00:52:19.519Z,94915
2015-07-27T00:52:37.926Z,94903
2015-07-27T00:52:56.302Z,94903
2015-07-27T00:53:15.020Z,94908
2015-07-27T00:53:33.442Z,94918
2015-07-27T00:53:51.848Z,94912
2015-07-27T00:54:10.570Z,94906
2015-07-27T00:54:29.164Z,94912
2015-07-27T00:54:47.664Z,94909
2015-07-27T00:55:06.274Z,94903
2015-07-27T00:55:24.665Z,94906
2015-07-27T00:55:43.102Z,94908
2015-07-27T00:56:01.854Z,94903
2015-07-27T00:56:20.323Z,94908
2015-07-27T00:56:39.011Z,94912
2015-07-27T00:56:57.526Z,94898
2015-07-27T00:57:15.966Z,94906
2015-07-27T00:57:34.419Z,94906
2015-07-27T00:57:52.888Z,94905
2015-07-27T00:58:11.546Z,94914
2015-07-27T00:58:29.952Z,94908
2015-07-27T00:58:48.530Z,94905
2015-07-27T00:59:07.096Z,94911
2015-07-27T00:59:25.518Z,94911
2015-07-27T00:59:44.205Z,94902
2015-07-27T01:00:02.580Z,94902
2015-07-27T01:00:21.253Z,94902
2015-07-27T01:00:39.956Z,94907
2015-07-27T01:00:58.394Z,94911
2015-07-27T01:01:16.896Z,94911
2015-07-27T01:01:35.364Z,94909
2015-07-27T01:01:53.849Z,94901
2015-07-27T01:02:12.320Z,94906
2015-07-27T01:02:30.695Z,94909
2015-07-27T01:02:49.085Z,94906
2015-07-27T01:03:07.790Z,94903
2015-07-27T01:03:26.447Z,94911
2015-07-27T01:03:45.165Z,94894
2015-07-27T01:04:03.712Z,94902
2015-07-27T01:04:22.230Z,94893
2015-07-27T01:04:40.699Z,94897
2015-07-27T01:04:59.480Z,94900
2015-07-27T01:05:17.919Z,94904
2015-07-27T01:05:36.404Z,94907
2015-07-27T01:05:54.857Z,94895
2015-07-27T01:06:13.374Z,94901
2015-07-27T01:06:31.765Z,94904
2015-07-27T01:06:49.843Z,94895
2015-07-27T01:07:08.515Z,94895
2015-07-27T01:07:26.892Z,94901
2015-07-27T01:07:45.673Z,94898
2015-07-27T01:08:04.486Z,94889
2015-07-27T01:08:22.987Z,94898
2015-07-27T01:08:41.502Z,94898
2015-07-27T01:09:00.268Z,94892
2015-07-27T01:09:18.818Z,94892
2015-07-27T01:09:37.193Z,94892
2015-07-27T01:09:56.115Z,94889
2015-07-27T01:10:14.476Z,94892
2015-07-27T01:10:33.070Z,94895
2015-07-27T01:10:51.461Z,94889
2015-07-27T01:11:10.023Z,94895
2015-07-27T01:11:28.400Z,94889
2015-07-27T01:11:47.166Z,94889
2015-07-27T01:12:05.603Z,94897
2015-07-27T01:12:24.027Z,94897
2015-07-27T01:12:42.496Z,94889
2015-07-27T01:13:01.136Z,94897
2015-07-27T01:13:19.826Z,94896
2015-07-27T01:13:38.498Z,94899
2015-07-27T01:13:56.998Z,94896
2015-07-27T01:14:15.562Z,94899
2015-07-27T01:14:34.390Z,94890
2015-07-27T01:14:53.047Z,94900
2015-07-27T01:15:11.781Z,94894
2015-07-27T01:15:30.564Z,94894
2015-07-27T01:15:48.986Z,94891
2015-07-27T01:16:07.596Z,94897
2015-07-27T01:16:25.972Z,94894
2015-07-27T01:16:44.378Z,94894
2015-07-27T01:17:02.972Z,94888
2015-07-27T01:17:21.536Z,94897
2015-07-27T01:17:39.942Z,94891
2015-07-27T01:17:58.630Z,94894
2015-07-27T01:18:17.020Z,94887
2015-07-27T01:18:35.522Z,94893
2015-07-27T01:18:53.976Z,94890
2015-07-27T01:19:12.382Z,94900
2015-07-27T01:19:30.899Z,94903
2015-07-27T01:19:49.462Z,94897
2015-07-27T01:20:08.040Z,94891
2015-07-27T01:20:26.543Z,94896
2015-07-27T01:20:44.762Z,94886
2015-07-27T01:21:03.340Z,94892
2015-07-27T01:21:22.138Z,94889
2015-07-27T01:21:40.653Z,94892
2015-07-27T01:21:59.216Z,94886
2015-07-27T01:22:17.872Z,94884
2015-07-27T01:22:36.452Z,94887
2015-07-27T01:22:55.046Z,94885
2015-07-27T01:23:13.796Z,94887
2015-07-27T01:23:32.329Z,94890
2015-07-27T01:23:50.751Z,94892
2015-07-27T01:24:09.204Z,94892
2015-07-27T01:24:27.581Z,94875
2015-07-27T01:24:46.159Z,94893
2015-07-27T01:25:04.534Z,94887
2015-07-27T01:25:23.394Z,94889
2015-07-27T01:25:41.833Z,94887
2015-07-27T01:26:00.474Z,94887
2015-07-27T01:26:18.865Z,94889
2015-07-27T01:26:37.742Z,94882
2015-07-27T01:26:56.210Z,94889
2015-07-27T01:27:14.617Z,94885
2015-07-27T01:27:32.978Z,94887
2015-07-27T01:27:51.681Z,94882
2015-07-27T01:28:10.165Z,94892
2015-07-27T01:28:28.712Z,94885
2015-07-27T01:28:47.464Z,94884
2015-07-27T01:29:06.167Z,94875
2015-07-27T01:29:24.542Z,94877
2015-07-27T01:29:43.216Z,94875
2015-07-27T01:30:01.748Z,94886
2015-07-27T01:30:20.169Z,94875
2015-07-27T01:30:38.656Z,94880
2015-07-27T01:30:57.093Z,94880
2015-07-27T01:31:15.671Z,94881
2015-07-27T01:31:34.205Z,94884
2015-07-27T01:31:52.689Z,94887
2015-07-27T01:32:11.142Z,94873
2015-07-27T01:32:29.580Z,94884
2015-07-27T01:32:48.129Z,94881
2015-07-27T01:33:06.597Z,94881
2015-07-27T01:33:25.160Z,94879
2015-07-27T01:33:43.677Z,94875
2015-07-27T01:34:02.287Z,94879
2015-07-27T01:34:20.756Z,94881
2015-07-27T01:34:39.054Z,94881
2015-07-27T01:34:57.742Z,94878
2015-07-27T01:35:16.117Z,94875
2015-07-27T01:35:34.523Z,94881
2015-07-27T01:35:52.978Z,94874
2015-07-27T01:36:11.385Z,94869
2015-07-27T01:36:29.806Z,94881
2015-07-27T01:36:48.573Z,94876
2015-07-27T01:37:06.995Z,94882
2015-07-27T01:37:25.432Z,94876
2015-07-27T01:37:44.169Z,94876
2015-07-27T01:38:02.622Z,94872
2015-07-27T01:38:21.122Z,94884
2015-07-27T01:38:39.638Z,94869
2015-07-27T01:38:58.016Z,94881
2015-07-27T01:39:16.375Z,94863
2015-07-27T01:39:34.875Z,94872
2015-07-27T01:39:53.252Z,94869
2015-07-27T01:40:11.643Z,94866
2015-07-27T01:40:30.174Z,94875
2015-07-27T01:40:48.925Z,94871
2015-07-27T01:41:07.347Z,94878
2015-07-27T01:41:25.706Z,94876
2015-07-27T01:41:43.550Z,94878
2015-07-27T01:42:02.256Z,94874
2015-07-27T01:42:20.725Z,94877
2015-07-27T01:42:39.209Z,94877
2015-07-27T01:42:57.774Z,94876
2015-07-27T01:43:16.383Z,94874
2015-07-27T01:43:34.836Z,94874
2015-07-27T01:43:53.305Z,94870
2015-07-27T01:44:11.837Z,94870
2015-07-27T01:44:30.275Z,94875
2015-07-27T01:44:48.821Z,94870
2015-07-27T01:45:07.340Z,94869
2015-07-27T01:45:25.934Z,94868
2015-07-27T01:45:44.356Z,94867
2015-07-27T01:46:02.904Z,94870
2015-07-27T01:46:21.263Z,94867
2015-07-27T01:46:39.622Z,94869
2015-07-27T01:46:58.157Z,94880
2015-07-27T01:47:16.828Z,94869
2015-07-27T01:47:35.203Z,94871
2015-07-27T01:47:53.610Z,94865
2015-07-27T01:48:12.001Z,94863
2015-07-27T01:48:30.454Z,94869
2015-07-27T01:48:48.829Z,94864
2015-07-27T01:49:07.238Z,94873
2015-07-27T01:49:25.691Z,94870
2015-07-27T01:49:44.363Z,94872
2015-07-27T01:50:02.771Z,94863
2015-07-27T01:50:21.302Z,94874
2015-07-27T01:50:39.724Z,94875
2015-07-27T01:50:58.349Z,94875
2015-07-27T01:51:16.852Z,94878
2015-07-27T01:51:35.321Z,94870
2015-07-27T01:51:54.040Z,94859
2015-07-27T01:52:12.572Z,94873
2015-07-27T01:52:31.181Z,94865
2015-07-27T01:52:49.916Z,94865
2015-07-27T01:53:08.324Z,94876
2015-07-27T01:53:26.683Z,94862
2015-07-27T01:53:45.058Z,94868
2015-07-27T01:54:03.496Z,94876
2015-07-27T01:54:22.171Z,94864
2015-07-27T01:54:40.733Z,94864
2015-07-27T01:54:59.092Z,94870
2015-07-27T01:55:17.500Z,94856
2015-07-27T01:55:36.250Z,94855
2015-07-27T01:55:54.609Z,94861
2015-07-27T01:56:12.939Z,94859
2015-07-27T01:56:31.439Z,94855
2015-07-27T01:56:49.799Z,94863
2015-07-27T01:57:08.533Z,94858
2015-07-27T01:57:27.051Z,94858
2015-07-27T01:57:45.707Z,94852
2015-07-27T01:58:04.066Z,94866
2015-07-27T01:58:22.428Z,94858
2015-07-27T01:58:40.943Z,94863
2015-07-27T01:58:59.506Z,94868
2015-07-27T01:59:18.148Z,94857
2015-07-27T01:59:36.680Z,94857
2015-07-27T01:59:55.164Z,94866
2015-07-27T02:00:13.726Z,94864
2015-07-27T02:00:32.166Z,94859
2015-07-27T02:00:50.791Z,94861
2015-07-27T02:01:09.197Z,94858
2015-07-27T02:01:27.918Z,94855
2015-07-27T02:01:46.402Z,94858
2015-07-27T02:02:04.777Z,94862
2015-07-27T02:02:23.295Z,94857
2015-07-27T02:02:41.811Z,94853
2015-07-27T02:03:00.201Z,94862
2015-07-27T02:03:18.904Z,94867
2015-07-27T02:03:37.469Z,94853
2015-07-27T02:03:56.172Z,94861
2015-07-27T02:04:14.625Z,94859
2015-07-27T02:04:33.065Z,94859
2015-07-27T02:04:51.674Z,94864
2015-07-27T02:05:10.049Z,94855
2015-07-27T02:05:28.488Z,94861
2015-07-27T02:05:46.942Z,94861
2015-07-27T02:06:05.660Z,94870
2015-07-27T02:06:24.051Z,94866
2015-07-27T02:06:42.553Z,94864
2015-07-27T02:07:01.006Z,94864
2015-07-27T02:07:19.365Z,94859
2015-07-27T02:07:38.117Z,94862
2015-07-27T02:07:56.602Z,94862
2015-07-27T02:08:15.008Z,94861
2015-07-27T02:08:33.776Z,94857
2015-07-27T02:08:52.354Z,94860
2015-07-27T02:09:10.135Z,94863
2015-07-27T02:09:28.494Z,94858
2015-07-27T02:09:47.246Z,94863
2015-07-27T02:10:05.606Z,94854
2015-07-27T02:10:24.168Z,94849
2015-07-27T02:10:42.842Z,94844
2015-07-27T02:11:01.577Z,94852
2015-07-27T02:11:20.045Z,94846
2015-07-27T02:11:38.500Z,94843
2015-07-27T02:11:57.125Z,94834
2015-07-27T02:12:15.500Z,94842
2015-07-27T02:12:34.016Z,94838
2015-07-27T02:12:52.627Z,94833
2015-07-27T02:13:11.081Z,94831
2015-07-27T02:13:29.549Z,94826
2015-07-27T02:13:48.364Z,94834
2015-07-27T02:14:06.770Z,94829
2015-07-27T02:14:25.348Z,94818
2015-07-27T02:14:43.819Z,94827
2015-07-27T02:15:02.210Z,94825
2015-07-27T02:15:20.819Z,94838
2015-07-27T02:15:39.272Z,94832
2015-07-27T02:16:19.368Z,94837
2015-07-27T02:16:38.087Z,94831
2015-07-27T02:16:56.542Z,94839
2015-07-27T02:17:14.948Z,94831
2015-07-27T02:17:33.417Z,94836
2015-07-27T02:17:51.903Z,94833
2015-07-27T02:18:10.466Z,94826
2015-07-27T02:18:28.903Z,94834
2015-07-27T02:18:47.388Z,94834
2015-07-27T02:19:05.935Z,94826
2015-07-27T02:19:24.498Z,94830
2015-07-27T02:19:42.951Z,94831
2015-07-27T02:20:01.375Z,94831
2015-07-27T02:20:19.781Z,94831
2015-07-27T02:20:38.172Z,94823
2015-07-27T02:20:56.783Z,94829
2015-07-27T02:21:15.283Z,94815
2015-07-27T02:21:33.861Z,94826
2015-07-27T02:21:52.566Z,94821
2015-07-27T02:22:11.144Z,94823
2015-07-27T02:22:29.738Z,94820
2015-07-27T02:22:48.240Z,94824
2015-07-27T02:23:06.787Z,94820
2015-07-27T02:23:25.178Z,94817
2015-07-27T02:23:43.646Z,94826
2015-07-27T02:24:02.086Z,94820
2015-07-27T02:24:20.586Z,94809
2015-07-27T02:24:39.164Z,94823
2015-07-27T02:24:56.979Z,94814
2015-07-27T02:25:15.604Z,94816
2015-07-27T02:25:34.150Z,94827
2015-07-27T02:25:52.652Z,94817
2015-07-27T02:26:11.152Z,94822
2015-07-27T02:26:29.699Z,94815
2015-07-27T02:26:48.168Z,94816
2015-07-27T02:27:06.686Z,94816
2015-07-27T02:27:25.139Z,94811
2015-07-27T02:27:43.748Z,94820
2015-07-27T02:28:02.328Z,94805
2015-07-27T02:28:21.078Z,94814
2015-07-27T02:28:39.547Z,94811
2015-07-27T02:28:58.018Z,94805
2015-07-27T02:29:16.549Z,94799
2015-07-27T02:29:34.940Z,94805
2015-07-27T02:29:53.424Z,94806
2015-07-27T02:30:11.864Z,94809
2015-07-27T02:30:30.270Z,94797
2015-07-27T02:30:48.832Z,94814
2015-07-27T02:31:07.397Z,94811
2015-07-27T02:31:26.022Z,94805
2015-07-27T02:31:44.569Z,94809
2015-07-27T02:32:03.289Z,94803
2015-07-27T02:32:21.664Z,94803
2015-07-27T02:32:40.039Z,94797
2015-07-27T02:32:58.336Z,94805
2015-07-27T02:33:16.885Z,94805
2015-07-27T02:33:35.370Z,94800
2015-07-27T02:33:53.823Z,94800
2015-07-27T02:34:12.247Z,94814
2015-07-27T02:34:30.809Z,94803
2015-07-27T02:34:49.387Z,94806
2015-07-27T02:35:07.779Z,94809
2015-07-27T02:35:26.466Z,94810
2015-07-27T02:35:44.888Z,94814
2015-07-27T02:36:03.794Z,94807
2015-07-27T02:36:22.610Z,94802
2015-07-27T02:36:41.110Z,94797
2015-07-27T02:36:59.766Z,94803
2015-07-27T02:37:18.455Z,94805
2015-07-27T02:37:36.814Z,94800
2015-07-27T02:37:55.298Z,94797
2015-07-27T02:38:13.051Z,94795
2015-07-27T02:38:31.505Z,94808
2015-07-27T02:38:50.130Z,94806
2015-07-27T02:39:08.676Z,94805
2015-07-27T02:39:27.085Z,94804
2015-07-27T02:39:45.507Z,94798
2015-07-27T02:40:03.882Z,94801
2015-07-27T02:40:22.634Z,94812
2015-07-27T02:40:41.243Z,94812
2015-07-27T02:40:59.680Z,94812
2015-07-27T02:41:18.073Z,94817
2015-07-27T02:41:36.511Z,94813
2015-07-27T02:41:54.964Z,94800
2015-07-27T02:42:13.464Z,94818
2015-07-27T02:42:31.980Z,94812
2015-07-27T02:42:50.355Z,94814
2015-07-27T02:43:08.793Z,94814
2015-07-27T02:43:27.232Z,94817
2015-07-27T02:43:45.670Z,94817
2015-07-27T02:44:04.139Z,94815
2015-07-27T02:44:23.485Z,94820
2015-07-27T02:44:41.782Z,94817
2015-07-27T02:45:00.126Z,94823
2015-07-27T02:45:18.220Z,94821
2015-07-27T02:45:36.658Z,94820
2015-07-27T02:45:55.143Z,94823
2015-07-27T02:46:13.533Z,94812
2015-07-27T02:46:31.910Z,94822
2015-07-27T02:46:49.754Z,94812
2015-07-27T02:47:08.285Z,94818
2015-07-27T02:47:26.788Z,94818
2015-07-27T02:47:45.319Z,94824
2015-07-27T02:48:03.710Z,94818
2015-07-27T02:48:22.132Z,94827
2015-07-27T02:48:40.727Z,94812
2015-07-27T02:48:59.164Z,94818
2015-07-27T02:49:17.586Z,94810
2015-07-27T02:49:36.135Z,94812
2015-07-27T02:49:54.526Z,94815
2015-07-27T02:50:12.901Z,94804
2015-07-27T02:50:31.310Z,94806
2015-07-27T02:50:50.029Z,94814
2015-07-27T02:51:08.669Z,94811
2015-07-27T02:51:27.263Z,94814
2015-07-27T02:51:45.826Z,94806
2015-07-27T02:52:04.373Z,94817
2015-07-27T02:52:22.811Z,94818
2015-07-27T02:52:40.578Z,94817
2015-07-27T02:52:59.032Z,94817
2015-07-27T02:53:17.672Z,94812
2015-07-27T02:53:36.346Z,94813
2015-07-27T02:53:54.768Z,94818
2015-07-27T02:54:13.221Z,94814
2015-07-27T02:54:31.955Z,94811
2015-07-27T02:54:50.662Z,94803
2015-07-27T02:55:09.224Z,94815
2015-07-27T02:55:28.005Z,94804
2015-07-27T02:55:46.570Z,94809
2015-07-27T02:56:05.257Z,94799
2015-07-27T02:56:23.914Z,94816
2015-07-27T02:56:42.321Z,94810
2015-07-27T02:57:00.868Z,94812
2015-07-27T02:57:19.430Z,94812
2015-07-27T02:57:37.807Z,94819
2015-07-27T02:57:56.213Z,94821
2015-07-27T02:58:14.698Z,94821
2015-07-27T02:58:33.073Z,94815
2015-07-27T02:58:51.528Z,94823
2015-07-27T02:59:09.919Z,94823
2015-07-27T02:59:28.387Z,94821
2015-07-27T02:59:46.827Z,94817
2015-07-27T03:00:05.202Z,94812
2015-07-27T03:00:23.608Z,94825
2015-07-27T03:00:41.999Z,94820
2015-07-27T03:01:00.719Z,94822
2015-07-27T03:01:19.157Z,94817
2015-07-27T03:01:37.563Z,94821
2015-07-27T03:01:56.050Z,94824
2015-07-27T03:02:14.596Z,94819
2015-07-27T03:02:33.159Z,94820
2015-07-27T03:02:51.755Z,94826
2015-07-27T03:03:10.161Z,94820
2015-07-27T03:03:28.661Z,94818
2015-07-27T03:03:47.052Z,94826
2015-07-27T03:04:05.585Z,94828
2015-07-27T03:04:24.132Z,94819
2015-07-27T03:04:42.772Z,94816
2015-07-27T03:05:01.181Z,94827
2015-07-27T03:05:19.665Z,94820
2015-07-27T03:05:38.165Z,94828
2015-07-27T03:05:56.718Z,94822
2015-07-27T03:06:15.280Z,94828
2015-07-27T03:06:33.671Z,94824
2015-07-27T03:06:52.062Z,94810
2015-07-27T03:07:10.482Z,94828
2015-07-27T03:07:28.919Z,94827
2015-07-27T03:07:47.169Z,94815
2015-07-27T03:08:05.589Z,94824
2015-07-27T03:08:24.277Z,94824
2015-07-27T03:08:42.714Z,94818
2015-07-27T03:09:00.649Z,94829
2015-07-27T03:09:19.305Z,94829
2015-07-27T03:09:37.727Z,94826
2015-07-27T03:09:56.301Z,94829
2015-07-27T03:10:14.910Z,94817
2015-07-27T03:10:33.332Z,94833
2015-07-27T03:10:51.973Z,94820
2015-07-27T03:11:10.810Z,94836
2015-07-27T03:11:29.029Z,94832
2015-07-27T03:11:47.638Z,94838
2015-07-27T03:12:06.218Z,94838
2015-07-27T03:12:24.703Z,94832
2015-07-27T03:12:43.172Z,94831
2015-07-27T03:13:01.720Z,94839
2015-07-27T03:13:20.267Z,94837
2015-07-27T03:13:38.673Z,94837
2015-07-27T03:13:57.345Z,94829
2015-07-27T03:14:15.877Z,94832
2015-07-27T03:14:34.362Z,94828
2015-07-27T03:14:52.799Z,94830
2015-07-27T03:15:11.224Z,94832
2015-07-27T03:15:29.599Z,94832
2015-07-27T03:15:48.083Z,94832
2015-07-27T03:16:06.456Z,94832
2015-07-27T03:16:24.847Z,94830
2015-07-27T03:16:43.316Z,94826
2015-07-27T03:17:01.722Z,94827
2015-07-27T03:17:19.541Z,94824
2015-07-27T03:17:38.026Z,94831
2015-07-27T03:17:56.432Z,94823
2015-07-27T03:18:14.909Z,94828
2015-07-27T03:18:33.362Z,94833
2015-07-27T03:18:51.737Z,94826
2015-07-27T03:19:10.339Z,94825
2015-07-27T03:19:28.917Z,94825
2015-07-27T03:19:47.292Z,94835
2015-07-27T03:20:05.339Z,94828
2015-07-27T03:20:23.861Z,94828
2015-07-27T03:20:42.346Z,94826
2015-07-27T03:21:00.768Z,94823
2015-07-27T03:21:19.258Z,94830
2015-07-27T03:21:37.664Z,94822
2015-07-27T03:21:56.024Z,94822
2015-07-27T03:22:14.606Z,94838
2015-07-27T03:22:33.293Z,94824
2015-07-27T03:22:51.762Z,94821
2015-07-27T03:23:10.297Z,94828
2015-07-27T03:23:28.844Z,94820
2015-07-27T03:23:47.219Z,94824
2015-07-27T03:24:05.782Z,94824
2015-07-27T03:24:24.332Z,94824
2015-07-27T03:24:43.114Z,94829
2015-07-27T03:25:01.832Z,94832
2015-07-27T03:25:20.492Z,94832
2015-07-27T03:25:38.851Z,94831
2015-07-27T03:25:57.320Z,94821
2015-07-27T03:26:16.183Z,94828
2015-07-27T03:26:33.996Z,94833
2015-07-27T03:26:52.589Z,94822
2015-07-27T03:27:11.183Z,94835
2015-07-27T03:27:29.732Z,94834
2015-07-27T03:27:48.170Z,94821
2015-07-27T03:28:06.841Z,94834
2015-07-27T03:28:25.329Z,94822
2015-07-27T03:28:43.735Z,94829
2015-07-27T03:29:02.235Z,94822
2015-07-27T03:29:20.863Z,94829
2015-07-27T03:29:39.238Z,94829
2015-07-27T03:29:57.847Z,94832
2015-07-27T03:30:16.316Z,94829
2015-07-27T03:30:34.679Z,94837
2015-07-27T03:30:53.272Z,94830
2015-07-27T03:31:11.632Z,94828
2015-07-27T03:31:30.166Z,94825
2015-07-27T03:31:48.822Z,94828
2015-07-27T03:32:07.478Z,94822
2015-07-27T03:32:26.012Z,94830
2015-07-27T03:32:44.496Z,94828
2015-07-27T03:33:02.965Z,94838
2015-07-27T03:33:21.449Z,94837
2015-07-27T03:33:39.842Z,94834
2015-07-27T03:33:58.389Z,94826
2015-07-27T03:34:16.967Z,94823
2015-07-27T03:34:35.516Z,94833
2015-07-27T03:34:54.109Z,94823
2015-07-27T03:35:12.625Z,94825
2015-07-27T03:35:31.222Z,94830
2015-07-27T03:35:49.612Z,94831
2015-07-27T03:36:08.175Z,94836
2015-07-27T03:36:26.614Z,94836
2015-07-27T03:36:45.396Z,94830
2015-07-27T03:37:03.771Z,94828
2015-07-27T03:37:22.318Z,94831
2015-07-27T03:37:40.882Z,94831
2015-07-27T03:37:59.320Z,94826
2015-07-27T03:38:17.882Z,94834
2015-07-27T03:38:36.461Z,94831
2015-07-27T03:38:54.946Z,94827
2015-07-27T03:39:13.352Z,94821
2015-07-27T03:39:31.792Z,94829
2015-07-27T03:39:50.355Z,94824
2015-07-27T03:40:08.745Z,94823
2015-07-27T03:40:27.308Z,94829
2015-07-27T03:40:45.685Z,94823
2015-07-27T03:41:04.060Z,94828
2015-07-27T03:41:22.669Z,94829
2015-07-27T03:41:41.156Z,94837
2015-07-27T03:41:59.718Z,94838
2015-07-27T03:42:18.140Z,94828
2015-07-27T03:42:36.501Z,94822
2015-07-27T03:42:54.892Z,94828
2015-07-27T03:43:13.470Z,94827
2015-07-27T03:43:31.955Z,94829
2015-07-27T03:43:50.363Z,94827
2015-07-27T03:44:08.894Z,94824
2015-07-27T03:44:27.332Z,94818
2015-07-27T03:44:46.036Z,94828
2015-07-27T03:45:04.942Z,94829
2015-07-27T03:45:23.301Z,94824
2015-07-27T03:45:41.945Z,94827
2015-07-27T03:46:00.539Z,94835
2015-07-27T03:46:19.007Z,94832
2015-07-27T03:46:37.461Z,94829
2015-07-27T03:46:55.947Z,94822
2015-07-27T03:47:14.509Z,94832
2015-07-27T03:47:33.134Z,94828
2015-07-27T03:47:51.621Z,94828
2015-07-27T03:48:10.261Z,94825
2015-07-27T03:48:28.636Z,94830
2015-07-27T03:48:47.028Z,94823
2015-07-27T03:49:05.653Z,94826
2015-07-27T03:49:24.137Z,94826
2015-07-27T03:49:42.544Z,94832
2015-07-27T03:50:01.108Z,94825
2015-07-27T03:50:19.671Z,94823
2015-07-27T03:50:38.202Z,94825
2015-07-27T03:50:56.782Z,94838
2015-07-27T03:51:15.516Z,94829
2015-07-27T03:51:33.970Z,94832
2015-07-27T03:51:52.348Z,94832
2015-07-27T03:52:10.926Z,94825
2015-07-27T03:52:29.519Z,94828
2015-07-27T03:52:48.004Z,94829
2015-07-27T03:53:06.552Z,94829
2015-07-27T03:53:24.286Z,94827
2015-07-27T03:53:42.645Z,94823
2015-07-27T03:54:01.352Z,94820
2015-07-27T03:54:19.820Z,94825
2015-07-27T03:54:38.195Z,94825
2015-07-27T03:54:56.649Z,94819
2015-07-27T03:55:15.259Z,94816
2015-07-27T03:55:33.103Z,94835
2015-07-27T03:55:51.509Z,94829
2015-07-27T03:56:10.073Z,94826
2015-07-27T03:56:28.511Z,94834
2015-07-27T03:56:46.480Z,94824
2015-07-27T03:57:04.685Z,94827
2015-07-27T03:57:23.325Z,94821
2015-07-27T03:57:41.388Z,94824
2015-07-27T03:57:59.827Z,94832
2015-07-27T03:58:18.327Z,94834
2015-07-27T03:58:36.780Z,94829